sim
Sign-in with your pilot id or email,
or register
Callsign
Passwort

Schedule Details

Flight Number: DLH2067 (2)
Departure: Hamburg Airport (EDDH) at 11:15
Arrival: Munich Airport (EDDM) at 12:30
Route: Lufthansa Passenger Schedule. Enter filed route here before submitting Pirep.

Weather Information
Getting current METAR information for EDDH 211820Z VRB01KT CAVOK 15/10 Q1015 NOSIG
Getting current METAR information for EDDM 211820Z 10001KT CAVOK 15/13 Q1016 NOSIG

Schedule Frequency

Route Map